.
WxDataArchive / Data Records for 2014-10-15
2014-10-14 October 2014 2014-10-16

Data Records for Wednesday, 15 October 2014

Time	Temp	Chill	HIndex	Humid	Dewpt	 Wind 	HiWind	WindDir	Rain 	Barom
-----	----	-----	------	-----	-----	------	------	-------	-----	-----
00:00	53.8	53.8	53.8	89	50.6	0	0	---	0.00	29.667 
00:05	53.8	53.8	53.8	90	50.9	0	0	---	0.00	29.667 
00:10	53.9	53.9	53.9	90	51.0	0	0	---	0.00	29.667 
00:15	54.1	54.1	54.1	90	51.2	0	0	---	0.00	29.670 
00:20	54.2	54.2	54.2	90	51.3	0	0	---	0.00	29.670 
00:25	54.4	54.4	54.4	89	51.2	0	0	---	0.00	29.670 
00:30	54.5	54.5	54.5	89	51.3	0	0	---	0.00	29.667 
00:35	54.5	54.5	54.5	89	51.3	0	0	---	0.00	29.667 
00:40	54.7	54.7	54.7	88	51.2	0	0	---	0.00	29.667 
00:45	54.7	54.7	54.7	88	51.2	0	0	---	0.00	29.667 
00:50	54.8	54.8	54.8	88	51.3	0	0	---	0.00	29.667 
00:55	54.8	54.8	54.8	88	51.3	0	0	---	0.00	29.667 
01:00	54.7	54.7	54.7	88	51.2	0	0	---	0.00	29.669 
01:05	54.7	54.7	54.7	88	51.2	0	0	---	0.00	29.669 
01:10	54.7	54.7	54.7	88	51.2	0	0	---	0.00	29.669 
01:15	54.7	54.7	54.7	87	50.9	0	0	---	0.00	29.670 
01:20	54.7	54.7	54.7	87	50.9	0	0	---	0.00	29.670 
01:25	54.5	54.5	54.5	87	50.7	0	0	---	0.00	29.670 
01:30	54.5	54.5	54.5	87	50.7	0	0	---	0.00	29.670 
01:35	54.5	54.5	54.5	87	50.7	0	0	---	0.00	29.670 
01:40	54.5	54.5	54.5	88	51.0	0	0	---	0.00	29.670 
01:45	54.7	54.7	54.7	87	50.9	0	0	---	0.00	29.673 
01:50	54.7	54.7	54.7	87	50.9	0	0	---	0.00	29.673 
01:55	54.7	54.7	54.7	87	50.9	0	0	---	0.00	29.673 
02:00	54.5	54.5	54.5	87	50.7	0	0	---	0.00	29.677 
02:05	54.5	54.5	54.5	87	50.7	0	0	---	0.00	29.677 
02:10	54.4	54.4	54.4	87	50.6	0	0	---	0.00	29.677 
02:15	54.2	54.2	54.2	87	50.4	0	0	---	0.00	29.678 
02:20	54.1	54.1	54.1	87	50.3	0	0	---	0.00	29.678 
02:25	53.8	53.8	53.8	88	50.3	0	1	90	0.00	29.678 
02:30	53.5	53.5	53.5	88	50.0	0	0	---	0.00	29.684 
02:35	53.3	53.3	53.3	88	49.8	0	2	90	0.00	29.684 
02:40	53.2	53.2	53.2	88	49.7	0	0	---	0.00	29.684 
02:45	53.1	53.1	53.1	89	49.9	0	0	---	0.00	29.688 
02:50	52.9	52.9	52.9	89	49.7	0	0	---	0.00	29.688 
02:55	52.9	52.9	52.9	89	49.7	0	0	---	0.00	29.688 
03:00	52.8	52.8	52.8	89	49.6	0	1	90	0.00	29.688 
03:05	52.6	52.6	52.6	89	49.4	0	0	---	0.00	29.688 
03:10	52.5	52.5	52.5	89	49.4	0	0	---	0.00	29.688 
03:15	52.5	52.5	52.5	89	49.4	0	0	---	0.00	29.689 
03:20	52.2	52.2	52.2	89	49.1	0	0	---	0.00	29.689 
03:25	52.2	52.2	52.2	89	49.1	0	0	---	0.00	29.689 
03:30	52.0	52.0	52.0	90	49.2	0	1	90	0.00	29.692 
03:35	51.9	51.9	51.9	90	49.1	0	2	90	0.00	29.692 
03:40	51.9	51.9	51.9	90	49.1	0	1	90	0.00	29.692 
03:45	51.9	51.9	51.9	90	49.1	0	0	---	0.00	29.694 
03:50	51.9	51.9	51.9	91	49.4	0	0	---	0.00	29.694 
03:55	52.0	52.0	52.0	91	49.5	0	0	---	0.00	29.694 
04:00	52.2	52.2	52.2	91	49.7	0	0	---	0.00	29.695 
04:05	52.3	52.3	52.3	91	49.8	0	0	---	0.00	29.695 
04:10	52.5	52.5	52.5	92	50.2	0	0	---	0.00	29.695 
04:15	52.5	52.5	52.5	92	50.2	0	1	90	0.00	29.695 
04:20	52.6	52.6	52.6	92	50.3	0	1	90	0.00	29.695 
04:25	52.8	52.8	52.8	92	50.5	0	0	---	0.00	29.695 
04:30	52.9	52.9	52.9	92	50.6	0	0	---	0.00	29.694 
04:35	53.1	53.1	53.1	92	50.8	0	1	90	0.00	29.694 
04:40	53.2	53.2	53.2	92	50.9	0	1	90	0.00	29.694 
04:45	53.2	53.2	53.2	91	50.6	0	1	90	0.00	29.696 
04:50	53.3	53.3	53.3	91	50.7	0	1	90	0.00	29.696 
04:55	53.5	53.5	53.5	91	50.9	0	0	---	0.00	29.696 
05:00	53.5	53.5	53.5	91	50.9	0	1	90	0.00	29.696 
05:05	53.6	53.6	53.6	91	51.0	0	1	90	0.00	29.696 
05:10	53.6	53.6	53.6	91	51.0	0	0	---	0.00	29.696 
05:15	53.6	53.6	53.6	91	51.0	0	1	90	0.00	29.695 
05:20	53.6	53.6	53.6	91	51.0	0	1	90	0.00	29.695 
05:25	53.6	53.6	53.6	90	50.7	0	1	90	0.00	29.695 
05:30	53.5	53.5	53.5	90	50.6	0	1	90	0.00	29.696 
05:35	53.3	53.3	53.3	91	50.7	0	2	90	0.00	29.696 
05:40	53.3	53.3	53.3	91	50.7	0	1	90	0.00	29.696 
05:45	53.2	53.2	53.2	91	50.6	0	1	90	0.00	29.704 
05:50	53.1	53.1	53.1	91	50.5	0	0	---	0.00	29.704 
05:55	52.9	52.9	52.9	91	50.3	0	0	---	0.00	29.704 
06:00	52.8	52.8	52.8	91	50.2	0	1	90	0.00	29.708 
06:05	52.8	52.8	52.8	91	50.2	0	2	90	0.00	29.708 
06:10	52.8	52.8	52.8	91	50.2	0	1	90	0.00	29.708 
06:15	52.8	52.8	52.8	91	50.2	0	1	90	0.00	29.710 
06:20	52.6	52.6	52.6	92	50.3	0	0	---	0.00	29.710 
06:25	52.6	52.6	52.6	92	50.3	0	1	90	0.00	29.710 
06:30	52.6	52.6	52.6	92	50.3	0	1	90	0.00	29.713 
06:35	52.6	52.6	52.6	92	50.3	0	1	90	0.00	29.713 
06:40	52.8	52.8	52.8	92	50.5	0	1	90	0.00	29.713 
06:45	52.8	52.8	52.8	92	50.5	0	0	---	0.00	29.713 
06:50	52.8	52.8	52.8	92	50.5	0	1	90	0.00	29.713 
06:55	52.8	52.8	52.8	92	50.5	0	1	90	0.00	29.713 
07:00	52.9	52.9	52.9	92	50.6	0	1	90	0.00	29.714 
07:05	52.9	52.9	52.9	92	50.6	0	0	---	0.00	29.714 
07:10	52.9	52.9	52.9	92	50.6	0	0	---	0.00	29.714 
07:15	52.9	52.9	52.9	92	50.6	0	0	---	0.00	29.716 
07:20	52.9	52.9	52.9	92	50.6	0	0	---	0.00	29.716 
07:25	53.1	53.1	53.1	92	50.8	0	0	---	0.00	29.716 
07:30	53.1	53.1	53.1	92	50.8	0	0	---	0.00	29.720 
07:35	53.2	53.2	53.2	92	50.9	0	1	90	0.00	29.720 
07:40	53.2	53.2	53.2	92	50.9	0	0	---	0.00	29.720 
07:45	53.2	53.2	53.2	92	50.9	0	1	90	0.00	29.717 
07:50	53.2	53.2	53.2	92	50.9	0	0	---	0.00	29.717 
07:55	53.2	53.2	53.2	92	50.9	0	0	---	0.00	29.717 
08:00	53.2	53.2	53.2	92	50.9	0	0	---	0.00	29.716 
08:05	53.2	53.2	53.2	92	50.9	0	0	---	0.00	29.716 
08:10	53.2	53.2	53.2	92	50.9	0	0	---	0.00	29.716 
08:15	53.2	53.2	53.2	92	50.9	0	0	---	0.00	29.720 
08:20	53.3	53.3	53.3	92	51.0	0	1	90	0.00	29.720 
08:25	53.3	53.3	53.3	92	51.0	0	0	---	0.00	29.720 
08:30	53.5	53.5	53.5	92	51.2	0	1	90	0.00	29.722 
08:35	53.5	53.5	53.5	92	51.2	0	0	---	0.00	29.722 
08:40	53.6	53.6	53.6	92	51.3	0	1	90	0.00	29.722 
08:45	53.8	53.8	53.8	92	51.5	0	2	90	0.00	29.725 
08:50	53.9	53.9	53.9	92	51.6	0	1	90	0.00	29.725 
08:55	53.9	53.9	53.9	92	51.6	0	1	90	0.00	29.725 
09:00	54.1	54.1	54.1	92	51.8	0	2	90	0.00	29.726 
09:05	54.1	54.1	54.1	91	51.5	0	2	90	0.00	29.726 
09:10	54.2	54.2	54.2	91	51.6	0	3	90	0.00	29.726 
09:15	54.4	54.4	54.4	91	51.8	0	3	202	0.00	29.728 
09:20	54.4	54.4	54.4	91	51.8	0	1	202	0.00	29.728 
09:25	54.5	54.5	54.5	90	51.6	0	2	202	0.00	29.728 
09:30	54.7	54.7	54.7	90	51.8	0	2	202	0.00	29.728 
09:35	54.8	54.8	54.8	90	51.9	0	1	202	0.00	29.728 
09:40	55.0	55.0	55.0	90	52.1	0	1	202	0.00	29.728 
09:45	55.1	55.1	55.1	90	52.2	0	1	202	0.00	29.729 
09:50	55.3	55.3	55.3	89	52.1	0	2	202	0.00	29.729 
09:55	55.3	55.3	55.3	89	52.1	0	1	202	0.00	29.729 
10:00	55.4	55.4	55.4	89	52.2	0	2	202	0.00	29.729 
10:05	55.4	55.4	55.4	89	52.2	0	2	202	0.00	29.729 
10:10	55.4	55.4	55.4	89	52.2	0	0	---	0.00	29.729 
10:15	55.4	55.4	55.4	89	52.2	0	2	45	0.00	29.732 
10:20	55.4	55.4	55.4	89	52.2	0	1	45	0.00	29.732 
10:25	55.4	55.4	55.4	89	52.2	0	2	112	0.00	29.732 
10:30	55.6	55.6	55.6	88	52.1	0	1	112	0.00	29.732 
10:35	55.6	55.6	55.6	88	52.1	0	1	112	0.00	29.732 
10:40	55.6	55.6	55.6	88	52.1	0	1	112	0.00	29.732 
10:45	55.6	55.6	55.6	88	52.1	0	1	112	0.00	29.731 
10:50	55.7	55.7	55.7	88	52.2	0	2	112	0.00	29.731 
10:55	55.9	55.9	55.9	88	52.4	0	1	135	0.00	29.731 
11:00	56.0	56.0	56.0	87	52.2	0	1	135	0.00	29.729 
11:05	56.0	56.0	56.0	87	52.2	0	2	135	0.00	29.729 
11:10	56.2	56.2	56.2	87	52.4	0	2	158	0.00	29.729 
11:15	56.3	56.3	56.3	87	52.5	0	1	158	0.00	29.731 
11:20	56.3	56.3	56.3	86	52.2	0	1	135	0.00	29.731 
11:25	56.3	56.3	56.3	85	51.8	0	2	135	0.00	29.731 
11:30	56.3	56.3	56.3	86	52.2	0	1	135	0.00	29.733 
11:35	56.3	56.3	56.3	86	52.2	0	2	135	0.00	29.733 
11:40	56.5	56.5	56.5	86	52.4	0	1	135	0.00	29.733 
11:45	56.5	56.5	56.5	85	52.0	0	1	135	0.00	29.732 
11:50	56.6	56.6	56.6	85	52.1	0	2	135	0.00	29.732 
11:55	56.7	56.7	56.7	85	52.2	0	2	135	0.00	29.732 
12:00	57.0	57.0	57.0	84	52.2	0	2	135	0.00	29.733 
12:05	57.5	57.5	57.5	84	52.7	0	2	135	0.00	29.733 
12:10	58.0	58.0	58.0	83	52.9	0	1	135	0.00	29.733 
12:15	58.1	58.1	58.1	82	52.6	0	1	135	0.00	29.730 
12:20	58.1	58.1	58.1	81	52.3	0	2	135	0.00	29.730 
12:25	58.1	58.1	58.1	80	52.0	0	2	135	0.00	29.730 
12:30	58.1	58.1	58.1	81	52.3	0	1	135	0.00	29.734 
12:35	58.3	58.3	58.3	81	52.5	0	2	135	0.00	29.734 
12:40	58.1	58.1	58.1	80	52.0	0	1	135	0.00	29.734 
12:45	58.0	58.0	58.0	80	51.9	0	1	135	0.00	29.735 
12:50	57.8	57.8	57.8	80	51.7	0	0	---	0.00	29.735 
12:55	58.0	58.0	58.0	82	52.5	0	0	---	0.00	29.735 
13:00	57.8	57.8	57.8	83	52.7	0	1	135	0.00	29.737 
13:05	57.6	57.6	57.6	84	52.8	0	0	---	0.01	29.737 
13:10	57.5	57.5	57.5	85	53.0	0	0	---	0.00	29.737 
13:15	57.3	57.3	57.3	85	52.8	0	0	---	0.00	29.736 
13:20	57.3	57.3	57.3	86	53.1	0	0	---	0.00	29.736 
13:25	57.2	57.2	57.2	86	53.0	0	0	---	0.00	29.736 
13:30	57.2	57.2	57.2	86	53.0	0	0	---	0.00	29.730 
13:35	57.2	57.2	57.2	87	53.4	0	0	---	0.00	29.730 
13:40	57.2	57.2	57.2	87	53.4	0	2	135	0.00	29.730 
13:45	57.0	57.0	57.0	87	53.2	0	1	135	0.00	29.726 
13:50	56.9	56.9	56.9	88	53.4	0	0	---	0.00	29.726 
13:55	56.9	56.9	56.9	89	53.7	0	0	---	0.00	29.726 
14:00	57.0	57.0	57.0	89	53.8	0	2	135	0.00	29.725 
14:05	57.0	57.0	57.0	89	53.8	0	1	135	0.00	29.725 
14:10	57.0	57.0	57.0	89	53.8	0	1	135	0.00	29.725 
14:15	57.0	57.0	57.0	88	53.5	0	0	---	0.00	29.718 
14:20	57.2	57.2	57.2	88	53.7	0	2	135	0.00	29.718 
14:25	57.2	57.2	57.2	88	53.7	0	2	135	0.00	29.718 
14:30	57.3	57.3	57.3	87	53.5	0	1	135	0.00	29.711 
14:35	57.5	57.5	57.5	87	53.7	0	2	135	0.00	29.711 
14:40	57.8	57.8	57.8	87	54.0	0	2	135	0.00	29.711 
14:45	58.0	58.0	58.0	86	53.8	0	1	135	0.00	29.711 
14:50	57.8	57.8	57.8	85	53.3	0	2	135	0.00	29.711 
14:55	57.8	57.8	57.8	85	53.3	0	3	135	0.00	29.711 
15:00	57.8	57.8	57.8	85	53.3	0	1	135	0.00	29.709 
15:05	58.0	58.0	58.0	84	53.2	0	2	135	0.00	29.709 
15:10	58.3	58.3	58.3	84	53.5	0	3	135	0.00	29.709 
15:15	58.6	58.6	58.6	83	53.4	0	2	135	0.00	29.710 
15:20	58.6	58.6	58.6	81	52.8	0	1	135	0.00	29.710 
15:25	58.6	58.6	58.6	81	52.8	0	1	135	0.00	29.710 
15:30	58.6	58.6	58.6	81	52.8	0	2	135	0.00	29.710 
15:35	58.4	58.4	58.4	80	52.3	0	2	135	0.00	29.710 
15:40	58.3	58.3	58.3	80	52.2	0	1	135	0.00	29.710 
15:45	58.3	58.3	58.3	80	52.2	0	1	135	0.00	29.711 
15:50	58.3	58.3	58.3	81	52.5	0	0	---	0.00	29.711 
15:55	58.4	58.4	58.4	80	52.3	0	1	135	0.00	29.711 
16:00	58.4	58.4	58.4	80	52.3	0	1	135	0.00	29.711 
16:05	58.6	58.6	58.6	79	52.1	0	2	135	0.00	29.711 
16:10	58.6	58.6	58.6	78	51.8	0	2	135	0.00	29.711 
16:15	58.7	58.7	58.7	79	52.2	0	0	---	0.00	29.710 
16:20	58.7	58.7	58.7	77	51.5	0	1	135	0.00	29.710 
16:25	58.9	58.9	58.9	78	52.0	0	2	135	0.00	29.710 
16:30	59.0	59.0	59.0	77	51.8	0	0	---	0.00	29.709 
16:35	59.3	59.3	59.3	78	52.4	0	0	---	0.00	29.709 
16:40	59.5	59.5	59.5	79	53.0	0	0	---	0.00	29.709 
16:45	59.5	59.5	59.5	77	52.3	0	0	---	0.00	29.707 
16:50	59.6	59.6	59.6	77	52.4	0	0	---	0.00	29.707 
16:55	59.6	59.6	59.6	76	52.0	0	0	---	0.00	29.707 
17:00	59.8	59.8	59.8	76	52.2	0	0	---	0.00	29.709 
17:05	59.8	59.8	59.8	77	52.6	0	0	---	0.00	29.709 
17:10	59.9	59.9	59.9	76	52.3	0	0	---	0.00	29.709 
17:15	59.8	59.8	59.8	76	52.2	0	0	---	0.00	29.715 
17:20	59.8	59.8	59.8	76	52.2	0	0	---	0.00	29.715 
17:25	59.6	59.6	59.6	76	52.0	0	0	---	0.00	29.715 
17:30	59.5	59.5	59.5	77	52.3	0	0	---	0.00	29.717 
17:35	59.3	59.3	59.3	77	52.1	0	0	---	0.00	29.717 
17:40	59.0	59.0	59.0	77	51.8	0	0	---	0.00	29.717 
17:45	59.0	59.0	59.0	79	52.5	0	0	---	0.00	29.721 
17:50	58.9	58.9	58.9	80	52.7	0	0	---	0.00	29.721 
17:55	58.7	58.7	58.7	81	52.9	0	0	---	0.00	29.721 
18:00	58.7	58.7	58.7	82	53.2	0	0	---	0.00	29.720 
18:05	58.6	58.6	58.6	83	53.4	0	0	---	0.00	29.720 
18:10	58.4	58.4	58.4	83	53.3	0	0	---	0.00	29.720 
18:15	58.4	58.4	58.4	84	53.6	0	0	---	0.00	29.723 
18:20	58.4	58.4	58.4	85	53.9	0	0	---	0.00	29.723 
18:25	58.4	58.4	58.4	85	53.9	0	0	---	0.00	29.723 
18:30	58.4	58.4	58.4	86	54.2	0	0	---	0.00	29.726 
18:35	58.3	58.3	58.3	87	54.4	0	1	135	0.00	29.726 
18:40	58.1	58.1	58.1	86	53.9	0	1	135	0.00	29.726 
18:45	58.0	58.0	58.0	86	53.8	0	1	135	0.00	29.731 
18:50	57.8	57.8	57.8	86	53.6	0	0	---	0.00	29.731 
18:55	57.6	57.6	57.6	87	53.8	0	0	---	0.00	29.731 
19:00	57.5	57.5	57.5	87	53.7	0	0	---	0.00	29.739 
19:05	57.3	57.3	57.3	87	53.5	0	0	---	0.00	29.739 
19:10	57.2	57.2	57.2	87	53.4	0	0	---	0.00	29.739 
19:15	57.0	57.0	57.0	87	53.2	0	0	---	0.00	29.740 
19:20	57.0	57.0	57.0	88	53.5	0	0	---	0.00	29.740 
19:25	56.9	56.9	56.9	88	53.4	0	0	---	0.00	29.740 
19:30	56.9	56.9	56.9	88	53.4	0	0	---	0.00	29.744 
19:35	56.7	56.7	56.7	88	53.2	0	0	---	0.00	29.744 
19:40	56.6	56.6	56.6	88	53.1	0	0	---	0.00	29.744 
19:45	56.6	56.6	56.6	88	53.1	0	0	---	0.00	29.745 
19:50	56.6	56.6	56.6	88	53.1	0	0	---	0.00	29.745 
19:55	56.5	56.5	56.5	88	53.0	0	0	---	0.00	29.745 
20:00	56.5	56.5	56.5	88	53.0	0	0	---	0.00	29.748 
20:05	56.5	56.5	56.5	89	53.3	0	0	---	0.00	29.748 
20:10	56.6	56.6	56.6	89	53.4	0	0	---	0.00	29.748 
20:15	56.6	56.6	56.6	89	53.4	0	0	---	0.00	29.754 
20:20	56.6	56.6	56.6	89	53.4	0	0	---	0.00	29.754 
20:25	56.6	56.6	56.6	90	53.7	0	1	135	0.00	29.754 
20:30	56.5	56.5	56.5	90	53.6	0	1	135	0.00	29.753 
20:35	56.5	56.5	56.5	90	53.6	0	1	135	0.00	29.753 
20:40	56.3	56.3	56.3	90	53.4	0	0	---	0.00	29.753 
20:45	56.3	56.3	56.3	90	53.4	0	1	135	0.00	29.756 
20:50	56.2	56.2	56.2	91	53.6	0	0	---	0.00	29.756 
20:55	56.2	56.2	56.2	91	53.6	0	0	---	0.00	29.756 
21:00	56.2	56.2	56.2	91	53.6	0	0	---	0.00	29.757 
21:05	56.0	56.0	56.0	91	53.4	0	0	---	0.00	29.757 
21:10	56.0	56.0	56.0	91	53.4	0	0	---	0.00	29.757 
21:15	56.0	56.0	56.0	91	53.4	0	0	---	0.00	29.758 
21:20	56.0	56.0	56.0	92	53.7	0	0	---	0.00	29.758 
21:25	55.9	55.9	55.9	92	53.6	0	0	---	0.00	29.758 
21:30	55.9	55.9	55.9	92	53.6	0	0	---	0.01	29.757 
21:35	55.7	55.7	55.7	92	53.4	0	0	---	0.00	29.757 
21:40	55.6	55.6	55.6	92	53.3	0	0	---	0.00	29.757 
21:45	55.6	55.6	55.6	92	53.3	0	0	---	0.00	29.755 
21:50	55.4	55.4	55.4	92	53.1	0	0	---	0.00	29.755 
21:55	55.3	55.3	55.3	92	53.0	0	0	---	0.00	29.755 
22:00	55.3	55.3	55.3	92	53.0	0	0	---	0.00	29.756 
22:05	55.1	55.1	55.1	92	52.8	0	0	---	0.00	29.756 
22:10	55.0	55.0	55.0	92	52.7	0	0	---	0.00	29.756 
22:15	55.0	55.0	55.0	92	52.7	0	0	---	0.00	29.755 
22:20	54.8	54.8	54.8	92	52.5	0	0	---	0.00	29.755 
22:25	54.8	54.8	54.8	92	52.5	0	0	---	0.00	29.755 
22:30	54.7	54.7	54.7	92	52.4	0	0	---	0.00	29.750 
22:35	54.5	54.5	54.5	92	52.2	0	0	---	0.00	29.750 
22:40	54.4	54.4	54.4	92	52.1	0	0	---	0.00	29.750 
22:45	54.4	54.4	54.4	92	52.1	0	0	---	0.00	29.750 
22:50	54.2	54.2	54.2	92	51.9	0	0	---	0.00	29.750 
22:55	54.1	54.1	54.1	92	51.8	0	0	---	0.00	29.750 
23:00	54.1	54.1	54.1	93	52.1	0	0	---	0.00	29.751 
23:05	53.9	53.9	53.9	93	51.9	0	0	---	0.00	29.751 
23:10	53.9	53.9	53.9	93	51.9	0	0	---	0.00	29.751 
23:15	53.9	53.9	53.9	93	51.9	0	0	---	0.00	29.751 
23:20	53.9	53.9	53.9	93	51.9	0	0	---	0.00	29.751 
23:25	53.9	53.9	53.9	93	51.9	0	0	---	0.00	29.751 
23:30	53.9	53.9	53.9	93	51.9	0	0	---	0.00	29.749 
23:35	53.9	53.9	53.9	93	51.9	0	0	---	0.00	29.749 
23:40	53.9	53.9	53.9	93	51.9	0	0	---	0.00	29.749 
23:45	53.8	53.8	53.8	93	51.8	0	0	---	0.00	29.750 
23:50	53.9	53.9	53.9	94	52.2	0	0	---	0.00	29.750 
23:55	53.9	53.9	53.9	94	52.2	0	0	---	0.00	29.750 

CoCoRaHS
IN-AL-39
A2 Web Hosting
Creative Commons License
GoDaddy
search engine by freefind advanced

loaded 2018-11-20 07:18:47 • last modified 2010-11-18 10:43:29
Privacy PolicyDisclaimer
• wx.awcolley.com is powered by PmWiki v.2002016 •
• all content (unless otherwise noted) © 2018 A W Colley